Time;durP1;ratioP1;P1;durP2;ratioP2;P2;SDS_P1;SDS_P2;PMS_P1;PMS_P2;Temp;Humidity;BMP_temperature;BMP_pressure;BME280_temperature;BME280_humidity;BME280_pressure;Samples;Min_cycle;Max_cycle;Signal;HPM_P1;HPM_P2
2021/12/21 00:00:48;;;;;;;0.40;0.20;;;-1.30;99.90;;;;;;5091504;28;20915;-76
2021/12/21 00:03:14;;;;;;;0.40;0.25;;;-1.20;99.90;;;;;;5107168;28;20479;-77
2021/12/21 00:05:41;;;;;;;0.40;0.20;;;-1.30;99.90;;;;;;5109257;28;20377;-77
2021/12/21 00:08:12;;;;;;;0.40;0.40;;;-1.40;99.90;;;;;;5090495;28;20392;-77
2021/12/21 00:10:38;;;;;;;0.40;0.30;;;-1.40;99.90;;;;;;5091215;28;20384;-76
2021/12/21 00:13:20;;;;;;;0.80;0.60;;;-1.40;99.90;;;;;;5112071;28;20373;-77
2021/12/21 00:17:02;;;;;;;0.50;0.40;;;-1.40;99.90;;;;;;5112009;28;20408;-76
2021/12/21 00:21:35;;;;;;;0.40;0.20;;;-1.40;99.90;;;;;;5114938;28;20368;-77
2021/12/21 00:24:10;;;;;;;0.40;0.20;;;-1.40;99.90;;;;;;5113990;28;20873;-77
2021/12/21 00:26:37;;;;;;;0.40;0.20;;;-1.40;99.90;;;;;;5113279;28;21046;-77
2021/12/21 00:29:03;;;;;;;1.00;0.80;;;-1.30;99.90;;;;;;5095549;28;20778;-77
2021/12/21 00:31:32;;;;;;;0.40;0.38;;;-1.30;99.90;;;;;;5113498;28;20395;-77
2021/12/21 00:33:59;;;;;;;0.40;0.20;;;-1.30;99.90;;;;;;5100535;28;20431;-77
2021/12/21 00:36:27;;;;;;;0.40;0.20;;;-1.30;99.90;;;;;;5093196;28;20417;-77
2021/12/21 00:38:55;;;;;;;0.40;0.20;;;-1.30;99.90;;;;;;5093819;28;20455;-77
2021/12/21 00:41:21;;;;;;;0.40;0.20;;;-1.40;99.90;;;;;;5093439;28;20389;-76
2021/12/21 00:43:48;;;;;;;0.40;0.20;;;-1.50;99.90;;;;;;5092897;28;20370;-77
2021/12/21 00:46:14;;;;;;;0.40;0.20;;;-1.50;99.90;;;;;;5093741;28;20465;-76
2021/12/21 00:48:49;;;;;;;0.40;0.30;;;-1.40;99.90;;;;;;5092747;28;20864;-76
2021/12/21 00:51:15;;;;;;;0.40;0.20;;;-1.40;99.90;;;;;;5093526;28;20424;-77
2021/12/21 00:53:41;;;;;;;0.40;0.20;;;-1.50;99.90;;;;;;5092148;28;20405;-77
2021/12/21 00:56:07;;;;;;;0.40;0.20;;;-1.60;99.90;;;;;;5093672;28;20389;-76
2021/12/21 00:58:33;;;;;;;0.40;0.30;;;-1.60;99.90;;;;;;5074961;28;20416;-76
2021/12/21 01:01:04;;;;;;;0.40;0.20;;;-1.50;99.90;;;;;;5074198;28;21023;-76
2021/12/21 01:03:31;;;;;;;0.40;0.30;;;-1.60;99.90;;;;;;5092998;28;20389;-76
2021/12/21 01:06:10;;;;;;;0.40;0.20;;;-1.70;99.90;;;;;;5092379;28;20371;-76
2021/12/21 01:08:54;;;;;;;0.40;0.20;;;-1.70;99.90;;;;;;5092767;28;20393;-76
2021/12/21 01:11:31;;;;;;;0.40;0.30;;;-1.70;99.90;;;;;;5093196;28;20405;-76
2021/12/21 01:14:41;;;;;;;0.40;0.30;;;-1.70;99.90;;;;;;5092103;28;20382;-76
2021/12/21 01:16:58;;;;;;;0.50;0.50;;;-1.70;99.90;;;;;;5090815;28;20421;-76
2021/12/21 01:19:32;;;;;;;0.40;0.20;;;-1.60;99.90;;;;;;5092824;28;20480;-76
2021/12/21 01:32:29;;;;;;;0.40;0.20;;;-1.80;99.90;;;;;;5057427;28;20390;-76
2021/12/21 01:35:10;;;;;;;0.50;0.50;;;-1.70;99.90;;;;;;5074522;28;20431;-76
2021/12/21 01:51:12;;;;;;;0.40;0.20;;;-2.00;99.90;;;;;;5091749;28;20434;-76
2021/12/21 01:53:39;;;;;;;0.40;0.40;;;-1.90;99.90;;;;;;5092236;28;20414;-76
2021/12/21 01:56:06;;;;;;;0.40;0.20;;;-1.80;99.90;;;;;;5091846;28;20717;-76
2021/12/21 01:58:33;;;;;;;0.40;0.20;;;-1.80;99.90;;;;;;5090888;28;20947;-76
2021/12/21 02:01:01;;;;;;;0.40;0.20;;;-1.90;99.90;;;;;;5073768;28;20417;-76
2021/12/21 02:03:26;;;;;;;1.20;0.80;;;-1.90;99.90;;;;;;5091465;28;20386;-76
2021/12/21 02:05:52;;;;;;;0.40;0.40;;;-2.10;99.90;;;;;;5073568;28;20443;-76
2021/12/21 02:08:18;;;;;;;0.40;0.20;;;-2.00;99.90;;;;;;5091893;28;20394;-75
2021/12/21 02:10:44;;;;;;;0.40;0.20;;;-2.10;99.90;;;;;;5090846;28;20370;-75
2021/12/21 02:13:09;;;;;;;0.40;0.20;;;-2.00;99.90;;;;;;5091618;28;20378;-75
2021/12/21 02:15:35;;;;;;;0.40;0.20;;;-2.10;99.90;;;;;;5090988;28;20370;-76
2021/12/21 02:18:50;;;;;;;0.43;0.35;;;-2.20;99.90;;;;;;5091108;28;20483;-75
2021/12/21 02:21:01;;;;;;;0.40;0.20;;;-2.10;99.90;;;;;;5076523;28;20401;-76
2021/12/21 02:23:37;;;;;;;0.40;0.20;;;-2.10;99.90;;;;;;5091579;28;20382;-75
2021/12/21 02:29:09;;;;;;;0.40;0.20;;;-2.10;99.90;;;;;;5090253;28;20674;-76
2021/12/21 02:31:33;;;;;;;0.40;0.30;;;-2.10;99.90;;;;;;5091382;28;20412;-75
2021/12/21 02:33:59;;;;;;;0.40;0.30;;;-2.10;99.90;;;;;;5103884;28;20368;-75
2021/12/21 02:36:25;;;;;;;0.40;0.20;;;-2.00;99.90;;;;;;5110526;28;20364;-75
2021/12/21 02:38:51;;;;;;;0.40;0.20;;;-2.10;99.90;;;;;;5110769;28;20380;-76
2021/12/21 02:41:37;;;;;;;0.40;0.20;;;-1.90;99.90;;;;;;5111271;28;20415;-75
2021/12/21 02:44:04;;;;;;;0.40;0.20;;;-1.80;99.90;;;;;;5110763;28;20381;-75
2021/12/21 02:46:30;;;;;;;0.40;0.20;;;-1.80;99.90;;;;;;5111188;28;20376;-75
2021/12/21 02:48:56;;;;;;;0.40;0.20;;;-1.70;99.90;;;;;;5110499;28;20380;-75
2021/12/21 02:51:23;;;;;;;0.40;0.20;;;-1.80;99.90;;;;;;5110957;28;20433;-75
2021/12/21 02:53:49;;;;;;;0.40;0.20;;;-1.80;99.90;;;;;;5111281;28;20410;-75
2021/12/21 02:56:14;;;;;;;0.40;0.20;;;-1.80;99.90;;;;;;5110103;28;20375;-75
2021/12/21 02:58:41;;;;;;;0.60;0.60;;;-1.80;99.90;;;;;;5110282;28;20810;-75
2021/12/21 03:01:09;;;;;;;0.40;0.20;;;-1.80;99.90;;;;;;5110393;28;20715;-75
2021/12/21 03:03:35;;;;;;;0.40;0.20;;;-1.80;99.90;;;;;;5111297;28;20411;-75
2021/12/21 03:06:04;;;;;;;0.40;0.20;;;-2.10;99.90;;;;;;5092642;28;20423;-75
2021/12/21 03:08:43;;;;;;;0.40;0.20;;;-2.00;99.90;;;;;;5111137;28;20391;-75
2021/12/21 03:11:21;;;;;;;0.40;0.20;;;-1.90;99.90;;;;;;5094135;28;20384;-75
2021/12/21 03:16:19;;;;;;;0.40;0.30;;;-1.90;99.90;;;;;;5110189;28;20380;-75
2021/12/21 03:18:45;;;;;;;0.40;0.20;;;-1.80;99.90;;;;;;5110673;28;20477;-75
2021/12/21 03:21:11;;;;;;;0.70;0.60;;;-2.00;99.90;;;;;;5110366;28;20384;-75
2021/12/21 03:23:38;;;;;;;0.40;0.20;;;-1.90;99.90;;;;;;5110427;28;20391;-75
2021/12/21 03:26:04;;;;;;;1.30;0.70;;;-1.90;99.90;;;;;;5110759;28;20372;-75
2021/12/21 03:28:30;;;;;;;0.80;0.60;;;-1.90;99.90;;;;;;5110196;28;20396;-74
2021/12/21 03:30:55;;;;;;;0.40;0.20;;;-1.80;99.90;;;;;;5110603;28;20388;-74
2021/12/21 03:33:21;;;;;;;0.40;0.20;;;-1.80;99.90;;;;;;5101755;28;20457;-75
2021/12/21 03:35:47;;;;;;;0.40;0.20;;;-1.80;99.90;;;;;;5072197;28;20461;-74
2021/12/21 03:38:14;;;;;;;0.40;0.20;;;-1.90;99.90;;;;;;5072359;28;20484;-74
2021/12/21 03:40:40;;;;;;;0.40;0.30;;;-2.00;99.90;;;;;;5089589;28;20875;-74
2021/12/21 03:43:06;;;;;;;0.40;0.20;;;-2.00;99.90;;;;;;5089852;28;20382;-74
2021/12/21 03:45:36;;;;;;;0.40;0.30;;;-2.20;99.90;;;;;;5089536;28;20378;-75
2021/12/21 03:48:02;;;;;;;0.40;0.20;;;-2.20;99.90;;;;;;5075560;28;20472;-74
2021/12/21 03:50:28;;;;;;;0.40;0.20;;;-2.10;99.90;;;;;;5094732;28;20386;-74
2021/12/21 03:52:53;;;;;;;0.40;0.20;;;-2.00;99.90;;;;;;5093454;28;20856;-74
2021/12/21 03:55:19;;;;;;;0.40;0.20;;;-2.00;99.90;;;;;;5094038;28;20398;-74
2021/12/21 03:57:45;;;;;;;0.40;0.20;;;-2.10;99.90;;;;;;5093592;28;20438;-74
2021/12/21 04:00:14;;;;;;;0.40;0.30;;;-2.20;99.90;;;;;;5076117;28;20440;-74
2021/12/21 04:02:40;;;;;;;0.40;0.30;;;-2.40;99.90;;;;;;5093996;28;20386;-75
2021/12/21 04:05:07;;;;;;;0.40;0.30;;;-2.30;99.90;;;;;;5094145;28;20403;-74
2021/12/21 04:07:32;;;;;;;0.40;0.20;;;-2.40;99.90;;;;;;5093916;28;20480;-74
2021/12/21 04:09:58;;;;;;;0.40;0.30;;;-2.30;99.90;;;;;;5075228;28;20903;-74
2021/12/21 04:12:24;;;;;;;0.40;0.20;;;-2.50;99.90;;;;;;5094128;28;20378;-74
2021/12/21 04:14:52;;;;;;;0.40;0.30;;;-2.60;99.90;;;;;;5093374;28;20412;-75
2021/12/21 04:17:22;;;;;;;0.40;0.20;;;-2.60;99.90;;;;;;5093919;28;20405;-74
2021/12/21 04:19:48;;;;;;;0.40;0.30;;;-2.50;99.90;;;;;;5093966;28;20393;-74
2021/12/21 04:22:15;;;;;;;0.40;0.30;;;-2.60;99.90;;;;;;5092769;28;21065;-74
2021/12/21 04:24:41;;;;;;;0.40;0.20;;;-2.60;99.90;;;;;;5093798;28;20394;-74
2021/12/21 04:27:06;;;;;;;0.40;0.30;;;-2.60;99.90;;;;;;5093192;28;20378;-74
2021/12/21 04:29:32;;;;;;;0.40;0.40;;;-2.60;99.90;;;;;;5093714;28;20433;-74
2021/12/21 04:31:58;;;;;;;0.40;0.30;;;-2.60;99.90;;;;;;5075051;28;20393;-74
2021/12/21 04:34:26;;;;;;;0.40;0.30;;;-2.70;99.90;;;;;;5110627;28;20404;-74
2021/12/21 04:36:52;;;;;;;0.40;0.30;;;-2.70;99.90;;;;;;5114302;28;20400;-74
2021/12/21 04:39:32;;;;;;;0.40;0.20;;;-2.70;99.90;;;;;;5113068;28;20398;-74
2021/12/21 04:41:57;;;;;;;0.40;0.30;;;-2.80;99.90;;;;;;5095927;28;20479;-74
2021/12/21 04:44:23;;;;;;;0.40;0.20;;;-2.80;99.90;;;;;;5113469;28;20448;-74
2021/12/21 04:46:49;;;;;;;0.40;0.20;;;-2.80;99.90;;;;;;5095948;28;20510;-74
2021/12/21 04:49:20;;;;;;;0.40;0.25;;;-2.80;99.90;;;;;;5113435;28;20463;-74
2021/12/21 04:51:46;;;;;;;0.40;0.20;;;-2.80;99.90;;;;;;5114241;28;20369;-74
2021/12/21 04:54:11;;;;;;;0.40;0.20;;;-2.90;99.90;;;;;;5113913;28;20392;-74
2021/12/21 04:56:38;;;;;;;0.40;0.20;;;-2.90;99.90;;;;;;5113384;28;20471;-74
2021/12/21 04:59:04;;;;;;;0.40;0.30;;;-2.90;99.90;;;;;;5112832;28;20376;-73
2021/12/21 05:01:29;;;;;;;0.40;0.30;;;-2.80;99.90;;;;;;5113075;28;20388;-74
2021/12/21 05:03:55;;;;;;;0.40;0.20;;;-2.80;99.90;;;;;;5095654;28;20377;-73
2021/12/21 05:06:21;;;;;;;0.40;0.20;;;-2.90;99.90;;;;;;5113786;28;20376;-74
2021/12/21 05:09:03;;;;;;;0.40;0.30;;;-3.00;99.90;;;;;;5113010;28;20461;-74
2021/12/21 05:11:33;;;;;;;0.40;0.30;;;-3.00;99.90;;;;;;5113332;28;20372;-74
2021/12/21 05:13:59;;;;;;;0.40;0.20;;;-3.00;99.90;;;;;;5114055;28;20376;-73
2021/12/21 05:16:24;;;;;;;0.40;0.20;;;-3.00;99.90;;;;;;5114013;28;20383;-73
2021/12/21 05:18:50;;;;;;;0.40;0.20;;;-2.90;99.90;;;;;;5113102;28;20449;-73
2021/12/21 05:21:16;;;;;;;0.40;0.30;;;-2.90;99.90;;;;;;5113637;28;20372;-73
2021/12/21 05:23:41;;;;;;;0.40;0.20;;;-2.80;99.90;;;;;;5112559;28;20395;-74
2021/12/21 05:26:07;;;;;;;0.40;0.30;;;-2.70;99.90;;;;;;5095290;28;20388;-74
2021/12/21 05:28:32;;;;;;;0.40;0.30;;;-2.80;99.90;;;;;;5113107;28;20770;-73
2021/12/21 05:30:58;;;;;;;0.40;0.20;;;-3.00;99.90;;;;;;5112203;28;20453;-74
2021/12/21 05:33:27;;;;;;;0.50;0.50;;;-2.90;99.90;;;;;;5104748;28;20386;-74
2021/12/21 05:35:52;;;;;;;0.40;0.30;;;-3.10;99.90;;;;;;5073909;28;20718;-74
2021/12/21 05:38:27;;;;;;;0.40;0.30;;;-3.10;99.90;;;;;;5092698;28;20415;-73
2021/12/21 05:40:54;;;;;;;0.40;0.30;;;-3.10;99.90;;;;;;5092110;28;20460;-74
2021/12/21 05:43:20;;;;;;;0.40;0.20;;;-3.10;99.90;;;;;;5092691;28;20431;-74
2021/12/21 05:45:45;;;;;;;0.40;0.30;;;-3.30;99.90;;;;;;5092150;28;20382;-73
2021/12/21 05:48:11;;;;;;;0.40;0.20;;;-3.20;99.90;;;;;;5091586;28;20876;-73
2021/12/21 05:50:37;;;;;;;0.40;0.20;;;-3.20;99.90;;;;;;5092532;28;20381;-72
2021/12/21 05:53:04;;;;;;;0.40;0.20;;;-3.20;99.90;;;;;;5091408;28;20732;-72
2021/12/21 05:55:30;;;;;;;0.40;0.30;;;-3.20;99.90;;;;;;5092354;28;20414;-72
2021/12/21 05:57:56;;;;;;;1.00;0.80;;;-3.20;99.90;;;;;;5092249;28;20410;-72
2021/12/21 06:00:29;;;;;;;0.40;0.20;;;-3.10;99.90;;;;;;5091557;28;20712;-72
2021/12/21 06:02:55;;;;;;;0.40;0.30;;;-3.20;99.90;;;;;;5092429;28;20871;-72
2021/12/21 06:05:21;;;;;;;0.40;0.30;;;-3.20;99.90;;;;;;5073231;28;20386;-72
2021/12/21 06:07:51;;;;;;;0.50;0.40;;;-3.20;99.90;;;;;;5091629;28;20397;-73
2021/12/21 06:10:23;;;;;;;0.40;0.40;;;-3.20;99.90;;;;;;5091065;28;20402;-74
2021/12/21 06:16:21;;;;;;;0.40;0.30;;;-3.20;99.90;;;;;;5092091;27;20414;-73
2021/12/21 06:26:50;;;;;;;0.40;0.30;;;-3.00;99.90;;;;;;5116748;27;20418;-74
2021/12/21 06:29:16;;;;;;;0.50;0.50;;;-3.10;99.90;;;;;;5132254;27;20407;-74
2021/12/21 06:31:42;;;;;;;0.40;0.20;;;-3.10;99.90;;;;;;5131819;27;20543;-74
2021/12/21 06:34:08;;;;;;;0.40;0.30;;;-3.20;99.90;;;;;;5117530;27;20442;-74
2021/12/21 06:36:34;;;;;;;0.40;0.30;;;-3.10;99.90;;;;;;5112033;27;20386;-75
2021/12/21 06:38:59;;;;;;;0.40;0.30;;;-3.20;99.90;;;;;;5113783;27;20911;-74
2021/12/21 06:41:25;;;;;;;0.40;0.30;;;-3.20;99.90;;;;;;5114361;27;20478;-74
2021/12/21 06:43:51;;;;;;;0.40;0.28;;;-3.20;99.90;;;;;;5131240;27;20430;-74
2021/12/21 06:51:43;;;;;;;0.40;0.30;;;-3.30;99.90;;;;;;5132166;27;20381;-74
2021/12/21 06:54:09;;;;;;;0.40;0.20;;;-3.20;99.90;;;;;;5132189;27;20452;-74
2021/12/21 06:56:34;;;;;;;0.40;0.20;;;-3.10;99.90;;;;;;5132177;27;20395;-74
2021/12/21 06:59:00;;;;;;;0.40;0.30;;;-3.20;99.90;;;;;;5131337;27;20382;-74
2021/12/21 07:01:28;;;;;;;0.40;0.30;;;-3.20;99.90;;;;;;5084278;27;20394;-74
2021/12/21 07:03:55;;;;;;;0.40;0.30;;;-3.40;99.90;;;;;;5103006;27;20528;-74
2021/12/21 07:06:23;;;;;;;0.40;0.20;;;-3.50;99.90;;;;;;5102686;27;20883;-74
2021/12/21 07:19:32;;;;;;;0.40;0.20;;;-3.50;99.90;;;;;;5090827;28;20924;-74
2021/12/21 07:21:58;;;;;;;0.40;0.20;;;-3.60;99.90;;;;;;5089987;28;20378;-74
2021/12/21 07:24:25;;;;;;;0.40;0.20;;;-3.60;99.90;;;;;;5090678;28;20435;-73
2021/12/21 07:26:51;;;;;;;0.40;0.30;;;-3.80;99.90;;;;;;5090515;28;20402;-73
2021/12/21 07:29:17;;;;;;;0.40;0.20;;;-3.70;99.90;;;;;;5096866;28;20454;-73
2021/12/21 07:31:43;;;;;;;0.40;0.30;;;-3.80;99.90;;;;;;5081772;28;20387;-74
2021/12/21 07:34:09;;;;;;;0.40;0.30;;;-3.70;99.90;;;;;;5097864;28;20724;-74
2021/12/21 07:36:35;;;;;;;0.40;0.30;;;-3.60;99.90;;;;;;5091023;28;20374;-74
2021/12/21 07:39:04;;;;;;;0.40;0.20;;;-3.50;99.90;;;;;;5094645;28;20733;-74
2021/12/21 07:41:30;;;;;;;0.50;0.50;;;-3.50;99.90;;;;;;5074655;28;20538;-74
2021/12/21 07:43:56;;;;;;;0.40;0.30;;;-3.60;99.90;;;;;;5090251;28;20484;-74
2021/12/21 07:46:22;;;;;;;0.40;0.20;;;-3.50;99.90;;;;;;5090282;28;20370;-74
2021/12/21 07:48:48;;;;;;;0.40;0.20;;;-3.50;99.90;;;;;;5090595;28;20374;-73
2021/12/21 07:51:14;;;;;;;0.40;0.30;;;-3.40;99.90;;;;;;5090478;28;20378;-74
2021/12/21 07:53:41;;;;;;;0.50;0.50;;;-3.50;99.90;;;;;;5090043;28;20378;-74
2021/12/21 07:56:08;;;;;;;0.40;0.20;;;-3.50;99.90;;;;;;5090397;28;20382;-73
2021/12/21 07:58:34;;;;;;;0.80;0.80;;;-3.50;99.90;;;;;;5071524;28;20398;-74
2021/12/21 08:01:03;;;;;;;0.40;0.30;;;-3.60;99.90;;;;;;5091082;28;20451;-74
2021/12/21 08:03:32;;;;;;;0.40;0.30;;;-3.50;99.90;;;;;;5089670;28;20393;-74
2021/12/21 08:05:59;;;;;;;0.40;0.30;;;-3.50;99.90;;;;;;5073767;28;20721;-74
2021/12/21 08:08:27;;;;;;;0.40;0.25;;;-3.40;99.90;;;;;;5106946;28;20480;-75
2021/12/21 08:11:28;;;;;;;0.40;0.20;;;-3.40;99.90;;;;;;5110706;28;20434;-74
2021/12/21 08:13:43;;;;;;;0.40;0.20;;;-3.30;99.90;;;;;;5108900;28;20435;-73
2021/12/21 08:16:10;;;;;;;0.40;0.20;;;-3.30;99.90;;;;;;5110693;28;20397;-74
2021/12/21 08:18:35;;;;;;;0.40;0.20;;;-3.20;99.90;;;;;;5109711;28;20400;-74
2021/12/21 08:21:02;;;;;;;0.40;0.30;;;-3.10;99.90;;;;;;5091874;28;20429;-73
2021/12/21 08:23:28;;;;;;;0.40;0.20;;;-3.10;99.90;;;;;;5110262;28;20387;-74
2021/12/21 08:25:56;;;;;;;0.40;0.20;;;-3.10;99.90;;;;;;5110329;28;20388;-74
2021/12/21 08:28:22;;;;;;;0.40;0.20;;;-3.00;99.90;;;;;;5110312;28;20415;-73
2021/12/21 08:30:48;;;;;;;0.40;0.20;;;-3.00;99.90;;;;;;5091958;28;20411;-74
2021/12/21 08:33:13;;;;;;;0.40;0.30;;;-2.90;99.90;;;;;;5105164;28;20414;-74
2021/12/21 08:35:40;;;;;;;0.40;0.30;;;-2.80;99.90;;;;;;5092962;28;20389;-74
2021/12/21 08:38:09;;;;;;;0.40;0.20;;;-2.90;99.90;;;;;;5093792;28;20476;-73
2021/12/21 08:40:40;;;;;;;0.40;0.20;;;-2.80;99.90;;;;;;5075566;28;20382;-73
2021/12/21 08:43:20;;;;;;;0.40;0.40;;;-2.70;99.90;;;;;;5094067;28;20371;-74
2021/12/21 08:45:48;;;;;;;0.40;0.20;;;-2.80;99.90;;;;;;5092870;28;20382;-74
2021/12/21 08:48:16;;;;;;;0.40;0.30;;;-2.60;99.90;;;;;;5075956;28;20790;-73
2021/12/21 08:50:43;;;;;;;0.50;0.47;;;-2.60;99.90;;;;;;5093431;28;20417;-73
2021/12/21 08:53:09;;;;;;;0.80;0.80;;;-2.80;99.90;;;;;;5093384;28;20424;-73
2021/12/21 08:55:35;;;;;;;0.40;0.20;;;-2.80;99.90;;;;;;5093614;28;20433;-73
2021/12/21 08:58:01;;;;;;;0.40;0.20;;;-2.80;99.90;;;;;;5074461;28;20449;-73
2021/12/21 09:00:26;;;;;;;0.40;0.30;;;-2.80;99.90;;;;;;5092843;28;20397;-73
2021/12/21 09:02:53;;;;;;;0.40;0.30;;;-2.80;99.90;;;;;;5074273;28;20436;-74
2021/12/21 09:05:21;;;;;;;0.40;0.20;;;-2.70;99.90;;;;;;5093146;28;20378;-73
2021/12/21 09:07:49;;;;;;;0.40;0.30;;;-2.60;99.90;;;;;;5093692;28;20472;-73
2021/12/21 09:10:17;;;;;;;0.40;0.20;;;-2.70;99.90;;;;;;5074433;28;20394;-73
2021/12/21 09:12:44;;;;;;;0.40;0.20;;;-2.60;99.90;;;;;;5093345;28;20382;-73
2021/12/21 09:15:12;;;;;;;0.90;0.60;;;-2.70;99.90;;;;;;5092308;28;20385;-73
2021/12/21 09:17:40;;;;;;;0.40;0.30;;;-2.60;99.90;;;;;;5074770;28;20451;-72
2021/12/21 09:20:06;;;;;;;0.40;0.20;;;-2.60;99.90;;;;;;5092126;28;20382;-73
2021/12/21 09:22:32;;;;;;;0.40;0.30;;;-2.90;99.90;;;;;;5074508;28;20382;-72
2021/12/21 09:24:59;;;;;;;0.40;0.20;;;-2.90;99.90;;;;;;5092723;28;20534;-75
2021/12/21 09:27:26;;;;;;;0.40;0.20;;;-2.80;99.90;;;;;;5092699;28;20397;-73
2021/12/21 09:29:52;;;;;;;0.40;0.20;;;-2.80;99.90;;;;;;5092626;28;20856;-73
2021/12/21 09:32:18;;;;;;;0.40;0.20;;;-2.80;99.90;;;;;;5091998;28;20393;-73
2021/12/21 09:34:46;;;;;;;0.40;0.20;;;-2.80;99.90;;;;;;5111905;28;20754;-74
2021/12/21 09:37:19;;;;;;;0.40;0.20;;;-2.90;99.90;;;;;;5094193;28;20491;-73
2021/12/21 09:39:48;;;;;;;0.40;0.30;;;-3.00;99.90;;;;;;5113462;28;20452;-74
2021/12/21 09:42:17;;;;;;;1.60;0.80;;;-2.90;99.90;;;;;;5112174;28;20383;-73
2021/12/21 09:44:43;;;;;;;0.40;0.20;;;-3.00;99.90;;;;;;5094095;28;20380;-73
2021/12/21 09:47:10;;;;;;;0.40;0.20;;;-2.90;99.90;;;;;;5112900;28;20369;-74
2021/12/21 09:49:37;;;;;;;0.50;0.50;;;-2.80;99.90;;;;;;5112445;28;20430;-75
2021/12/21 09:52:05;;;;;;;0.40;0.30;;;-2.90;99.90;;;;;;5112196;28;20384;-73
2021/12/21 09:54:33;;;;;;;0.40;0.20;;;-2.90;99.90;;;;;;5111734;28;20395;-73
2021/12/21 09:56:59;;;;;;;0.40;0.30;;;-3.00;99.90;;;;;;5112887;28;20455;-73
2021/12/21 09:59:25;;;;;;;0.40;0.20;;;-2.90;99.90;;;;;;5111869;28;20404;-73
2021/12/21 10:01:51;;;;;;;0.40;0.30;;;-3.00;99.90;;;;;;5112960;28;20825;-73
2021/12/21 10:04:18;;;;;;;0.40;0.20;;;-2.80;99.90;;;;;;5112240;28;20381;-74
2021/12/21 10:06:49;;;;;;;0.40;0.30;;;-2.80;99.90;;;;;;5112344;28;20914;-73
2021/12/21 10:09:20;;;;;;;0.40;0.30;;;-2.70;99.90;;;;;;5112514;28;20381;-74
2021/12/21 10:11:48;;;;;;;0.40;0.20;;;-2.70;99.90;;;;;;5112268;28;20373;-74
2021/12/21 10:14:17;;;;;;;0.40;0.20;;;-2.60;99.90;;;;;;5112513;28;20530;-73
2021/12/21 10:16:45;;;;;;;0.40;0.30;;;-2.70;99.90;;;;;;5111265;28;20425;-73
2021/12/21 10:19:24;;;;;;;0.40;0.20;;;-2.80;99.90;;;;;;5112240;28;20862;-74
2021/12/21 10:21:50;;;;;;;0.40;0.20;;;-2.80;99.90;;;;;;5111837;28;20384;-74
2021/12/21 10:24:24;;;;;;;0.40;0.30;;;-2.60;99.90;;;;;;5112352;28;20395;-74
2021/12/21 10:26:53;;;;;;;0.40;0.20;;;-2.70;99.90;;;;;;5111589;28;20391;-74
2021/12/21 10:29:21;;;;;;;0.40;0.20;;;-2.50;99.90;;;;;;5093874;28;20428;-74
2021/12/21 10:31:49;;;;;;;0.52;0.50;;;-2.70;99.90;;;;;;5111472;28;20403;-74
2021/12/21 10:34:17;;;;;;;0.40;0.30;;;-2.70;99.90;;;;;;5078514;28;20413;-74
2021/12/21 10:36:49;;;;;;;0.40;0.20;;;-2.60;99.90;;;;;;5072567;28;20389;-74
2021/12/21 10:39:26;;;;;;;0.40;0.20;;;-2.60;99.90;;;;;;5092092;28;20728;-74
2021/12/21 10:41:59;;;;;;;0.40;0.20;;;-2.70;99.90;;;;;;5090655;28;20378;-74
2021/12/21 10:44:25;;;;;;;0.40;0.20;;;-2.50;99.90;;;;;;5091664;28;20374;-74
2021/12/21 10:46:53;;;;;;;0.40;0.20;;;-2.50;99.90;;;;;;5090347;28;20421;-73
2021/12/21 10:49:28;;;;;;;0.40;0.20;;;-2.50;99.90;;;;;;5091504;28;20408;-74
2021/12/21 10:51:56;;;;;;;0.40;0.30;;;-2.40;99.90;;;;;;5071893;28;20390;-75
2021/12/21 10:54:42;;;;;;;0.40;0.30;;;-2.30;99.90;;;;;;5073252;28;20483;-74
2021/12/21 10:57:10;;;;;;;0.40;0.20;;;-2.40;99.90;;;;;;5071643;28;20445;-74
2021/12/21 10:59:38;;;;;;;0.40;0.20;;;-2.30;99.90;;;;;;5073171;28;20398;-73
2021/12/21 11:02:18;;;;;;;0.40;0.30;;;-2.20;99.90;;;;;;5072278;28;20846;-73
2021/12/21 11:04:48;;;;;;;0.40;0.20;;;-2.10;99.90;;;;;;5073180;28;20418;-74
2021/12/21 11:09:54;;;;;;;0.40;0.30;;;-2.00;99.90;;;;;;5090960;28;20852;-74
2021/12/21 11:12:20;;;;;;;0.40;0.20;;;-2.00;99.90;;;;;;5091166;28;20756;-74
2021/12/21 11:14:45;;;;;;;0.40;0.20;;;-2.00;99.90;;;;;;5090365;28;20386;-74
2021/12/21 11:17:13;;;;;;;0.40;0.30;;;-2.10;99.90;;;;;;5090128;28;20409;-75
2021/12/21 11:19:38;;;;;;;0.50;0.50;;;-2.40;99.90;;;;;;5090933;28;20963;-73
2021/12/21 11:22:04;;;;;;;0.40;0.30;;;-2.40;99.90;;;;;;5089802;28;20472;-74
2021/12/21 11:24:32;;;;;;;0.40;0.20;;;-2.30;99.90;;;;;;5090981;28;20390;-74
2021/12/21 11:27:01;;;;;;;0.40;0.20;;;-2.30;99.90;;;;;;5090951;28;20382;-73
2021/12/21 11:29:29;;;;;;;0.40;0.30;;;-2.20;99.90;;;;;;5091144;28;20398;-72
2021/12/21 11:31:57;;;;;;;0.40;0.20;;;-2.40;99.90;;;;;;5056532;28;20382;-73
2021/12/21 11:34:31;;;;;;;0.40;0.20;;;-2.20;99.90;;;;;;5106615;28;20389;-73
2021/12/21 11:39:42;;;;;;;0.80;0.70;;;-1.70;99.90;;;;;;5111196;28;20904;-74
2021/12/21 11:42:16;;;;;;;0.40;0.20;;;-1.60;99.90;;;;;;5111073;28;20412;-74
2021/12/21 11:45:04;;;;;;;0.40;0.30;;;-1.80;99.90;;;;;;5111141;28;20425;-74
2021/12/21 11:47:41;;;;;;;0.40;0.30;;;-1.60;99.90;;;;;;5110421;28;20441;-75
2021/12/21 11:50:09;;;;;;;0.40;0.30;;;-1.40;99.90;;;;;;5111181;28;20416;-75
2021/12/21 11:52:51;;;;;;;0.40;0.20;;;-1.50;99.90;;;;;;5109491;28;20460;-74
2021/12/21 11:55:20;;;;;;;0.40;0.30;;;-1.30;99.90;;;;;;5110925;28;20437;-75
2021/12/21 11:57:52;;;;;;;0.40;0.20;;;-1.40;99.90;;;;;;5110694;28;20418;-75
2021/12/21 12:00:31;;;;;;;0.90;0.70;;;-1.40;99.90;;;;;;5092395;28;20398;-74
2021/12/21 12:03:14;;;;;;;0.40;0.30;;;-1.60;99.90;;;;;;5092767;28;20475;-74
2021/12/21 12:05:53;;;;;;;0.40;0.30;;;-1.50;99.90;;;;;;5109940;28;20396;-74
2021/12/21 12:08:19;;;;;;;0.60;0.60;;;-1.20;99.90;;;;;;5112539;28;20463;-75
2021/12/21 12:10:50;;;;;;;0.40;0.40;;;-1.20;99.90;;;;;;5113949;28;20387;-74
2021/12/21 12:13:27;;;;;;;0.40;0.30;;;-1.30;99.90;;;;;;5115793;28;20396;-75
2021/12/21 12:15:56;;;;;;;0.40;0.30;;;-1.40;99.90;;;;;;5114380;28;20418;-74
2021/12/21 12:18:27;;;;;;;0.40;0.20;;;-1.40;99.90;;;;;;5114652;28;20395;-73
2021/12/21 12:20:53;;;;;;;0.40;0.30;;;-1.80;99.90;;;;;;5095849;28;20424;-73
2021/12/21 12:23:19;;;;;;;0.40;0.30;;;-1.80;99.90;;;;;;5114793;28;20467;-73
2021/12/21 12:25:54;;;;;;;0.40;0.20;;;-1.80;99.90;;;;;;5114074;28;20385;-74
2021/12/21 12:28:26;;;;;;;0.60;0.60;;;-1.80;99.90;;;;;;5114506;28;20723;-73
2021/12/21 12:30:53;;;;;;;0.40;0.40;;;-1.80;99.90;;;;;;5113749;28;20372;-73
2021/12/21 12:33:18;;;;;;;0.40;0.30;;;-1.80;99.90;;;;;;5114799;28;20433;-73
2021/12/21 12:35:45;;;;;;;0.40;0.30;;;-1.80;99.90;;;;;;5113566;28;20843;-73
2021/12/21 12:38:19;;;;;;;0.40;0.20;;;-1.90;99.90;;;;;;5114202;28;20400;-73
2021/12/21 12:40:49;;;;;;;0.40;0.20;;;-1.80;99.90;;;;;;5113487;28;20381;-73
2021/12/21 12:43:20;;;;;;;0.40;0.20;;;-1.80;99.90;;;;;;5113898;28;20403;-73
2021/12/21 12:45:51;;;;;;;0.40;0.20;;;-1.80;99.90;;;;;;5095076;28;20479;-73
2021/12/21 12:48:42;;;;;;;0.50;0.50;;;-1.80;99.90;;;;;;5095904;28;20396;-73
2021/12/21 12:51:10;;;;;;;0.40;0.30;;;-1.80;99.90;;;;;;5103863;28;20403;-74
2021/12/21 12:53:39;;;;;;;0.40;0.30;;;-1.80;99.90;;;;;;5113794;28;20376;-74
2021/12/21 12:56:06;;;;;;;0.40;0.20;;;-1.60;99.90;;;;;;5094993;28;20392;-74
2021/12/21 12:58:35;;;;;;;0.40;0.30;;;-1.70;99.90;;;;;;5113872;28;20411;-74
2021/12/21 13:01:03;;;;;;;0.40;0.20;;;-1.50;99.90;;;;;;5112725;28;20385;-74
2021/12/21 13:03:40;;;;;;;0.40;0.30;;;-1.60;99.90;;;;;;5095559;28;20396;-74
2021/12/21 13:06:16;;;;;;;0.40;0.20;;;-1.50;99.90;;;;;;5094667;28;20377;-74
2021/12/21 13:08:43;;;;;;;0.40;0.20;;;-1.60;99.90;;;;;;5113714;28;20399;-74
2021/12/21 13:11:09;;;;;;;0.40;0.20;;;-1.30;99.90;;;;;;5112917;28;20385;-74
2021/12/21 13:13:38;;;;;;;0.40;0.20;;;-1.40;99.90;;;;;;5113199;28;20380;-74
2021/12/21 13:16:15;;;;;;;0.40;0.20;;;-1.40;99.90;;;;;;5094525;28;20430;-74
2021/12/21 13:18:52;;;;;;;0.40;0.20;;;-1.40;99.90;;;;;;5113325;28;20408;-74
2021/12/21 13:21:19;;;;;;;0.40;0.20;;;-1.40;99.90;;;;;;5112452;28;20905;-74
2021/12/21 13:23:49;;;;;;;0.40;0.32;;;-1.20;99.90;;;;;;5113547;28;20459;-74
2021/12/21 13:26:15;;;;;;;0.40;0.40;;;-1.40;99.90;;;;;;5112980;28;20373;-73
2021/12/21 13:28:55;;;;;;;0.50;0.50;;;-1.40;99.90;;;;;;5113305;28;20404;-73
2021/12/21 13:31:23;;;;;;;0.40;0.20;;;-1.50;99.90;;;;;;5112591;28;20397;-75
2021/12/21 13:33:58;;;;;;;0.40;0.30;;;-1.40;99.90;;;;;;5082962;28;20410;-74
2021/12/21 13:36:41;;;;;;;0.40;0.30;;;-1.40;99.90;;;;;;5073992;28;20822;-75
2021/12/21 13:39:47;;;;;;;0.40;0.30;;;-1.20;99.90;;;;;;5092838;28;20401;-73
2021/12/21 13:42:18;;;;;;;0.40;0.30;;;-1.10;99.90;;;;;;5009772;28;20408;-74
2021/12/21 13:44:47;;;;;;;0.40;0.30;;;-1.10;99.90;;;;;;4994113;28;20412;-74
2021/12/21 13:47:23;;;;;;;0.40;0.20;;;-1.50;99.90;;;;;;5054623;28;20469;-75
2021/12/21 13:50:00;;;;;;;0.40;0.20;;;-1.60;99.90;;;;;;5092679;28;20894;-75
2021/12/21 13:52:29;;;;;;;0.40;0.30;;;-1.60;99.90;;;;;;5091536;28;20382;-75
2021/12/21 13:54:55;;;;;;;0.40;0.20;;;-1.50;99.90;;;;;;5074066;28;20412;-75
2021/12/21 13:57:22;;;;;;;0.40;0.20;;;-1.70;99.90;;;;;;5091714;28;20779;-75
2021/12/21 13:59:50;;;;;;;0.40;0.20;;;-1.70;99.90;;;;;;5092577;28;20732;-75
2021/12/21 14:02:34;;;;;;;0.40;0.30;;;-1.60;99.90;;;;;;5092221;28;20397;-75